Time;durP1;ratioP1;P1;durP2;ratioP2;P2;SDS_P1;SDS_P2;PMS_P1;PMS_P2;Temp;Humidity;BMP_temperature;BMP_pressure;BME280_temperature;BME280_humidity;BME280_pressure;Samples;Min_cycle;Max_cycle;Signal;HPM_P1;HPM_P2
2023/09/11 00:01:05;;;;;;;28.23;18.95;;;21.20;99.90;;;;;;7370891;19;20370;-61
2023/09/11 00:03:31;;;;;;;23.05;19.10;;;21.10;99.90;;;;;;7371021;19;20019;-61
2023/09/11 00:06:18;;;;;;;25.90;19.02;;;21.00;99.90;;;;;;7369210;19;20018;-61
2023/09/11 00:08:44;;;;;;;29.88;18.45;;;21.00;99.90;;;;;;7367316;19;20633;-61
2023/09/11 00:11:10;;;;;;;30.02;18.40;;;21.00;99.90;;;;;;7365234;19;20019;-61
2023/09/11 00:13:36;;;;;;;30.20;20.20;;;21.00;99.90;;;;;;7366167;19;20050;-62
2023/09/11 00:16:03;;;;;;;22.75;19.17;;;21.00;99.90;;;;;;7363665;19;20037;-61
2023/09/11 00:18:32;;;;;;;23.40;18.08;;;21.00;99.90;;;;;;7371212;19;20018;-61
2023/09/11 00:21:18;;;;;;;26.40;18.63;;;20.90;99.90;;;;;;7368150;19;20110;-61
2023/09/11 00:23:44;;;;;;;22.52;18.63;;;20.90;99.90;;;;;;7370157;19;20025;-62
2023/09/11 00:26:12;;;;;;;26.48;20.10;;;20.90;99.90;;;;;;7370083;19;20033;-62
2023/09/11 00:28:40;;;;;;;22.70;17.85;;;20.80;99.90;;;;;;7369099;19;20038;-62
2023/09/11 00:31:06;;;;;;;26.98;18.70;;;20.80;99.90;;;;;;7368834;19;20472;-61
2023/09/11 00:33:32;;;;;;;22.15;19.80;;;20.70;99.90;;;;;;7368236;19;20010;-61
2023/09/11 00:35:59;;;;;;;29.42;20.23;;;20.70;99.90;;;;;;7368375;19;20046;-61
2023/09/11 00:38:28;;;;;;;26.65;19.67;;;20.60;99.90;;;;;;7371247;19;20377;-62
2023/09/11 00:40:55;;;;;;;25.85;19.13;;;20.60;99.90;;;;;;7369284;19;20047;-62
2023/09/11 00:43:21;;;;;;;26.23;19.95;;;20.60;99.90;;;;;;7366518;19;20018;-62
2023/09/11 00:45:50;;;;;;;31.23;20.40;;;20.60;99.90;;;;;;7363445;19;21444;-61
2023/09/11 00:48:18;;;;;;;25.70;19.83;;;20.50;99.90;;;;;;7365446;19;20537;-62
2023/09/11 00:51:05;;;;;;;31.70;20.50;;;20.50;99.90;;;;;;7364368;19;20022;-62
2023/09/11 00:53:31;;;;;;;24.63;19.95;;;20.50;99.90;;;;;;7362735;19;20624;-62
2023/09/11 00:55:58;;;;;;;26.35;18.15;;;20.50;99.90;;;;;;7367960;19;20115;-61
2023/09/11 00:58:45;;;;;;;27.33;19.80;;;20.40;99.90;;;;;;7368231;19;20019;-61
2023/09/11 01:01:12;;;;;;;26.15;19.25;;;20.40;99.90;;;;;;7364411;19;20849;-61
2023/09/11 01:03:39;;;;;;;29.92;20.05;;;20.30;99.90;;;;;;7368378;19;20492;-61
2023/09/11 01:06:07;;;;;;;23.85;18.63;;;20.30;99.90;;;;;;7365393;19;20560;-66
2023/09/11 01:08:33;;;;;;;24.70;19.92;;;20.30;99.90;;;;;;7368451;19;20037;-61
2023/09/11 01:11:00;;;;;;;29.23;20.38;;;20.20;99.90;;;;;;7365234;19;21083;-61
2023/09/11 01:13:26;;;;;;;27.70;19.83;;;20.20;99.90;;;;;;7365194;19;20023;-61
2023/09/11 01:16:21;;;;;;;27.40;20.52;;;20.10;99.90;;;;;;7365672;19;20109;-66
2023/09/11 01:19:00;;;;;;;28.08;21.83;;;20.20;99.90;;;;;;7364030;19;20044;-66
2023/09/11 01:22:19;;;;;;;28.83;19.77;;;20.10;99.90;;;;;;7366140;19;20080;-66
2023/09/11 01:25:11;;;;;;;31.52;21.15;;;20.10;99.90;;;;;;7366168;19;20031;-66
2023/09/11 01:27:56;;;;;;;23.50;20.95;;;20.00;99.90;;;;;;7364987;19;20026;-66
2023/09/11 01:30:25;;;;;;;28.02;21.83;;;20.00;99.90;;;;;;7377030;19;20479;-60
2023/09/11 01:32:52;;;;;;;29.55;22.05;;;20.00;99.90;;;;;;7376289;19;20018;-66
2023/09/11 01:35:20;;;;;;;30.95;21.50;;;20.00;99.90;;;;;;7375194;19;20413;-65
2023/09/11 01:37:46;;;;;;;36.35;23.58;;;20.00;99.90;;;;;;7372259;19;20014;-65
2023/09/11 01:40:13;;;;;;;23.70;20.40;;;20.00;99.90;;;;;;7377342;19;20097;-62
2023/09/11 01:42:53;;;;;;;25.42;21.60;;;19.90;99.90;;;;;;7373365;19;20018;-61
2023/09/11 01:45:21;;;;;;;25.67;20.20;;;19.90;99.90;;;;;;7375500;19;20588;-65
2023/09/11 01:47:51;;;;;;;30.77;20.83;;;19.80;99.90;;;;;;7374227;19;20453;-66
2023/09/11 01:50:21;;;;;;;26.95;21.38;;;19.80;99.90;;;;;;7378742;19;20018;-66
2023/09/11 01:52:49;;;;;;;29.02;20.60;;;19.80;99.90;;;;;;7372044;19;20750;-66
2023/09/11 01:55:17;;;;;;;30.92;21.80;;;19.70;99.90;;;;;;7375263;19;20033;-66
2023/09/11 01:57:43;;;;;;;27.58;21.30;;;19.70;99.90;;;;;;7373247;19;20537;-66
2023/09/11 02:00:11;;;;;;;30.98;21.40;;;19.70;99.90;;;;;;7373744;19;20021;-65
2023/09/11 02:02:42;;;;;;;30.75;20.77;;;19.70;99.90;;;;;;7372771;19;20393;-66
2023/09/11 02:05:09;;;;;;;26.77;21.90;;;19.70;99.90;;;;;;7376619;19;20740;-66
2023/09/11 02:07:56;;;;;;;30.17;22.30;;;19.70;99.90;;;;;;7368787;19;20595;-66
2023/09/11 02:10:23;;;;;;;25.67;21.33;;;19.60;99.90;;;;;;7373186;19;20018;-66
2023/09/11 02:12:49;;;;;;;24.95;21.13;;;19.60;99.90;;;;;;7369201;19;20034;-67
2023/09/11 02:15:15;;;;;;;28.80;20.13;;;19.70;99.90;;;;;;7371378;19;20079;-67
2023/09/11 02:17:42;;;;;;;32.05;22.40;;;19.60;99.90;;;;;;7360238;19;20391;-66
2023/09/11 02:20:08;;;;;;;30.20;21.23;;;19.60;99.90;;;;;;7373795;19;20022;-66
2023/09/11 02:22:35;;;;;;;31.10;21.95;;;19.60;99.90;;;;;;7369792;19;20485;-66
2023/09/11 02:25:01;;;;;;;32.10;22.27;;;19.60;99.90;;;;;;7371975;19;20014;-66
2023/09/11 02:27:27;;;;;;;32.28;22.70;;;19.60;99.90;;;;;;7375769;19;20014;-66
2023/09/11 02:29:53;;;;;;;29.77;22.45;;;19.60;99.90;;;;;;7373632;19;20018;-66
2023/09/11 02:32:20;;;;;;;24.67;21.95;;;19.60;99.90;;;;;;7374681;19;20011;-66
2023/09/11 02:34:47;;;;;;;27.90;22.35;;;19.60;99.90;;;;;;7373159;19;21373;-66
2023/09/11 02:37:13;;;;;;;30.05;22.20;;;19.60;99.90;;;;;;7372559;19;20387;-66
2023/09/11 02:39:39;;;;;;;28.13;22.30;;;19.50;99.90;;;;;;7372332;19;20121;-67
2023/09/11 02:42:06;;;;;;;27.95;20.80;;;19.50;99.90;;;;;;7376119;19;20054;-67
2023/09/11 02:44:32;;;;;;;28.52;22.02;;;19.40;99.90;;;;;;7369347;19;20608;-66
2023/09/11 02:47:01;;;;;;;25.95;20.80;;;19.40;99.90;;;;;;7374039;19;20018;-65
2023/09/11 02:49:28;;;;;;;28.80;22.02;;;19.40;99.90;;;;;;7378444;19;20343;-65
2023/09/11 02:51:55;;;;;;;33.38;23.60;;;19.40;99.90;;;;;;7372242;19;20014;-65
2023/09/11 02:54:21;;;;;;;30.15;21.42;;;19.40;99.90;;;;;;7376314;19;20496;-66
2023/09/11 02:56:47;;;;;;;24.23;21.63;;;19.30;99.90;;;;;;7370670;19;20031;-65
2023/09/11 02:59:14;;;;;;;31.10;21.02;;;19.30;99.90;;;;;;7372232;19;20026;-66
2023/09/11 03:01:40;;;;;;;28.02;22.25;;;19.30;99.90;;;;;;7370807;19;20022;-65
2023/09/11 03:04:06;;;;;;;28.98;21.27;;;19.20;99.90;;;;;;7375574;19;20014;-67
2023/09/11 03:06:34;;;;;;;26.77;22.02;;;19.20;99.90;;;;;;7373329;19;20046;-67
2023/09/11 03:09:00;;;;;;;28.13;23.40;;;19.30;99.90;;;;;;7374112;19;20018;-65
2023/09/11 03:11:27;;;;;;;31.83;22.38;;;19.30;99.90;;;;;;7371370;19;20489;-66
2023/09/11 03:13:53;;;;;;;36.55;23.88;;;19.30;99.90;;;;;;7374111;19;20744;-66
2023/09/11 03:16:23;;;;;;;29.65;23.27;;;19.30;99.90;;;;;;7371143;19;20367;-66
2023/09/11 03:18:55;;;;;;;28.95;23.13;;;19.20;99.90;;;;;;7370578;19;20019;-66
2023/09/11 03:21:23;;;;;;;32.63;23.30;;;19.20;99.90;;;;;;7373978;19;20025;-65
2023/09/11 03:23:49;;;;;;;28.23;23.63;;;19.10;99.90;;;;;;7372368;19;20489;-66
2023/09/11 03:26:16;;;;;;;32.92;24.08;;;19.10;99.90;;;;;;7366800;19;20070;-66
2023/09/11 03:28:49;;;;;;;27.23;23.52;;;19.10;99.90;;;;;;7371427;19;20006;-66
2023/09/11 03:31:16;;;;;;;28.05;23.13;;;19.10;99.90;;;;;;7369542;19;20025;-66
2023/09/11 03:33:44;;;;;;;31.60;23.15;;;19.20;99.90;;;;;;7370582;19;20015;-66
2023/09/11 03:36:17;;;;;;;30.80;23.30;;;19.10;99.90;;;;;;7370992;19;20014;-66
2023/09/11 03:38:44;;;;;;;25.88;23.20;;;19.20;99.90;;;;;;7370342;19;20667;-66
2023/09/11 03:41:11;;;;;;;28.20;24.08;;;19.10;99.90;;;;;;7371995;19;21011;-66
2023/09/11 03:43:37;;;;;;;31.38;23.90;;;19.00;99.90;;;;;;7373386;19;20014;-66
2023/09/11 03:46:03;;;;;;;32.65;24.35;;;19.10;99.90;;;;;;7370576;19;20109;-66
2023/09/11 03:48:31;;;;;;;29.58;24.15;;;19.00;99.90;;;;;;7374545;19;20019;-66
2023/09/11 03:50:58;;;;;;;31.80;22.90;;;19.10;99.90;;;;;;7369944;19;20034;-66
2023/09/11 03:53:24;;;;;;;30.13;25.10;;;19.10;99.90;;;;;;7372056;19;20034;-66
2023/09/11 03:55:50;;;;;;;33.83;24.15;;;19.00;99.90;;;;;;7370400;19;20019;-66
2023/09/11 03:58:17;;;;;;;30.55;23.55;;;19.00;99.90;;;;;;7370275;19;20585;-66
2023/09/11 04:00:44;;;;;;;28.83;24.08;;;18.90;99.90;;;;;;7373217;19;20006;-66
2023/09/11 04:03:12;;;;;;;35.25;24.40;;;18.90;99.90;;;;;;7372045;19;20014;-65
2023/09/11 04:05:38;;;;;;;32.80;23.75;;;18.90;99.90;;;;;;7373463;19;20014;-66
2023/09/11 04:08:05;;;;;;;35.33;24.42;;;18.90;99.90;;;;;;7373621;19;20448;-66
2023/09/11 04:10:31;;;;;;;34.90;24.40;;;18.80;99.90;;;;;;7371740;19;20018;-65
2023/09/11 04:12:58;;;;;;;27.15;23.45;;;18.80;99.90;;;;;;7374577;19;20019;-65
2023/09/11 04:15:28;;;;;;;29.77;23.17;;;18.90;99.90;;;;;;7371038;19;20029;-66
2023/09/11 04:17:55;;;;;;;30.45;22.77;;;18.80;99.90;;;;;;7368341;19;20666;-66
2023/09/11 04:20:21;;;;;;;33.03;23.92;;;18.80;99.90;;;;;;7373290;19;20014;-66
2023/09/11 04:22:50;;;;;;;31.63;24.60;;;18.90;99.90;;;;;;7369330;19;20018;-66
2023/09/11 04:25:17;;;;;;;34.42;24.48;;;18.90;99.90;;;;;;7369893;19;20029;-66
2023/09/11 04:27:44;;;;;;;32.50;23.50;;;18.90;99.90;;;;;;7368397;19;20517;-66
2023/09/11 04:30:11;;;;;;;31.33;24.60;;;18.90;99.90;;;;;;7370221;19;20612;-67
2023/09/11 04:32:37;;;;;;;31.90;25.20;;;18.90;99.90;;;;;;7372083;19;20018;-66
2023/09/11 04:35:05;;;;;;;33.05;24.70;;;18.80;99.90;;;;;;7374449;19;20025;-66
2023/09/11 04:37:31;;;;;;;31.55;26.08;;;18.80;99.90;;;;;;7367743;19;20043;-66
2023/09/11 04:40:18;;;;;;;31.42;24.65;;;18.80;99.90;;;;;;7371695;19;20509;-67
2023/09/11 04:42:45;;;;;;;30.13;25.15;;;18.80;99.90;;;;;;7371186;19;20026;-66
2023/09/11 04:45:11;;;;;;;28.55;24.13;;;18.80;99.90;;;;;;7373438;19;20484;-67
2023/09/11 04:47:37;;;;;;;31.90;24.63;;;18.80;99.90;;;;;;7366422;19;20014;-65
2023/09/11 04:50:05;;;;;;;31.38;24.15;;;18.70;99.90;;;;;;7369047;19;20856;-60
2023/09/11 04:52:31;;;;;;;33.33;23.85;;;18.70;99.90;;;;;;7372622;19;20410;-67
2023/09/11 04:54:58;;;;;;;26.88;23.55;;;18.80;99.90;;;;;;7374807;19;20090;-65
2023/09/11 04:57:26;;;;;;;29.92;22.95;;;18.80;99.90;;;;;;7370051;19;20019;-66
2023/09/11 04:59:53;;;;;;;29.60;24.00;;;18.80;99.90;;;;;;7369089;19;20394;-66
2023/09/11 05:02:19;;;;;;;28.80;22.75;;;18.80;99.90;;;;;;7366848;19;20056;-65
2023/09/11 05:04:47;;;;;;;29.80;24.10;;;18.70;99.90;;;;;;7378802;19;20014;-66
2023/09/11 05:07:13;;;;;;;28.73;22.10;;;18.70;99.90;;;;;;7377316;19;20370;-59
2023/09/11 05:09:39;;;;;;;31.95;23.75;;;18.70;99.90;;;;;;7377757;19;20022;-60
2023/09/11 05:12:06;;;;;;;33.70;24.45;;;18.70;99.90;;;;;;7373947;19;20480;-61
2023/09/11 05:14:32;;;;;;;35.08;25.15;;;18.80;99.90;;;;;;7373897;19;20133;-61
2023/09/11 05:16:59;;;;;;;29.77;24.25;;;18.80;99.90;;;;;;7371784;19;20381;-61
2023/09/11 05:19:26;;;;;;;29.90;22.50;;;18.80;99.90;;;;;;7371568;19;20057;-61
2023/09/11 05:21:52;;;;;;;30.67;24.63;;;18.80;99.90;;;;;;7372359;19;20065;-61
2023/09/11 05:24:39;;;;;;;27.42;23.25;;;18.80;99.90;;;;;;7371679;19;20018;-61
2023/09/11 05:27:05;;;;;;;34.22;24.70;;;18.90;99.90;;;;;;7375200;19;20025;-62
2023/09/11 05:29:35;;;;;;;33.05;24.77;;;18.90;99.90;;;;;;7377546;19;20062;-60
2023/09/11 05:32:01;;;;;;;36.47;24.70;;;19.00;99.90;;;;;;7374004;19;20027;-60
2023/09/11 05:34:27;;;;;;;30.92;23.63;;;19.00;99.90;;;;;;7376443;19;20022;-61
2023/09/11 05:36:57;;;;;;;30.30;22.92;;;19.10;99.90;;;;;;7373770;19;20657;-60
2023/09/11 05:39:23;;;;;;;35.38;23.55;;;19.10;99.90;;;;;;7371701;19;20486;-60
2023/09/11 05:41:50;;;;;;;38.97;24.13;;;19.20;99.90;;;;;;7372269;19;20026;-61
2023/09/11 05:44:16;;;;;;;33.45;23.13;;;19.20;99.90;;;;;;7373711;19;20021;-60
2023/09/11 05:46:42;;;;;;;32.50;22.58;;;19.20;99.90;;;;;;7371849;19;20496;-60
2023/09/11 05:49:08;;;;;;;37.20;22.27;;;19.40;99.90;;;;;;7372331;19;20223;-60
2023/09/11 05:51:34;;;;;;;34.47;23.17;;;19.50;99.90;;;;;;7373799;19;20509;-60
2023/09/11 05:54:01;;;;;;;27.92;21.02;;;19.50;99.90;;;;;;7371835;19;20022;-60
2023/09/11 05:56:47;;;;;;;30.95;21.52;;;19.60;99.90;;;;;;7374625;19;20018;-60
2023/09/11 05:59:18;;;;;;;30.88;19.90;;;19.70;99.90;;;;;;7371924;19;20023;-60
2023/09/11 06:02:04;;;;;;;37.65;21.13;;;19.80;99.90;;;;;;7373076;19;20676;-60
2023/09/11 06:04:31;;;;;;;26.20;18.92;;;19.90;99.90;;;;;;7381026;19;20019;-67
2023/09/11 06:06:57;;;;;;;33.47;18.75;;;20.00;99.90;;;;;;7378557;19;20422;-66
2023/09/11 06:09:23;;;;;;;30.58;19.02;;;20.10;99.90;;;;;;7376154;19;20029;-61
2023/09/11 06:12:09;;;;;;;24.40;17.75;;;20.10;99.90;;;;;;7375423;19;20021;-62
2023/09/11 06:14:38;;;;;;;25.50;17.42;;;20.30;99.90;;;;;;7373895;19;20018;-61
2023/09/11 06:17:05;;;;;;;27.05;17.23;;;20.40;99.90;;;;;;7371694;19;20022;-61
2023/09/11 06:19:31;;;;;;;29.13;18.40;;;20.50;99.90;;;;;;7370784;19;20029;-61
2023/09/11 06:21:57;;;;;;;26.73;19.60;;;20.60;99.90;;;;;;7369726;19;20029;-66
2023/09/11 06:24:24;;;;;;;28.85;18.10;;;20.80;99.90;;;;;;7373223;19;20015;-66
2023/09/11 06:27:10;;;;;;;29.02;18.38;;;21.00;99.90;;;;;;7372440;19;20597;-67
2023/09/11 06:29:36;;;;;;;23.98;17.30;;;21.20;99.90;;;;;;7374467;19;20018;-66
2023/09/11 06:32:03;;;;;;;31.33;18.27;;;21.40;99.90;;;;;;7372434;19;20794;-66
2023/09/11 06:34:30;;;;;;;32.05;18.30;;;21.60;99.90;;;;;;7374041;19;20035;-67
2023/09/11 06:36:58;;;;;;;28.23;16.75;;;21.80;99.90;;;;;;7371987;19;20019;-66
2023/09/11 06:39:24;;;;;;;25.77;16.63;;;22.00;99.90;;;;;;7370600;19;20022;-66
2023/09/11 06:41:50;;;;;;;93.72;83.95;;;22.10;99.90;;;;;;7373394;19;20053;-63
2023/09/11 06:44:17;;;;;;;30.00;21.35;;;22.40;99.90;;;;;;7368003;19;20093;-67
2023/09/11 06:47:03;;;;;;;30.05;19.00;;;22.60;99.90;;;;;;7367713;19;20025;-67
2023/09/11 06:49:30;;;;;;;30.08;18.83;;;22.70;99.90;;;;;;7366332;19;20023;-67
2023/09/11 06:51:56;;;;;;;25.48;16.77;;;23.00;99.90;;;;;;7366122;19;20375;-67
2023/09/11 06:54:23;;;;;;;25.08;17.02;;;23.10;99.90;;;;;;7368632;19;20015;-67
2023/09/11 06:56:49;;;;;;;24.30;15.95;;;23.30;99.90;;;;;;7368839;19;20022;-66
2023/09/11 06:59:16;;;;;;;26.42;16.20;;;23.50;99.90;;;;;;7364840;19;20377;-66
2023/09/11 07:01:42;;;;;;;25.40;19.42;;;23.80;99.90;;;;;;7369874;19;20026;-66
2023/09/11 07:04:10;;;;;;;37.20;32.55;;;23.90;99.90;;;;;;7369445;19;20394;-66
2023/09/11 07:06:40;;;;;;;37.88;31.63;;;24.20;99.90;;;;;;7365647;19;20599;-67
2023/09/11 07:09:07;;;;;;;19.55;14.43;;;24.50;99.90;;;;;;7368507;19;20023;-66
2023/09/11 07:11:34;;;;;;;26.48;16.55;;;24.70;99.90;;;;;;7367601;19;20018;-61
2023/09/11 07:14:01;;;;;;;41.40;32.72;;;25.00;99.90;;;;;;7371164;19;20035;-66
2023/09/11 07:16:27;;;;;;;26.30;20.95;;;25.20;99.90;;;;;;7368456;19;20022;-66
2023/09/11 07:18:53;;;;;;;44.85;38.97;;;25.40;99.90;;;;;;7367877;19;20022;-68
2023/09/11 07:21:19;;;;;;;66.82;60.10;;;25.60;99.90;;;;;;7368441;19;20018;-66
2023/09/11 07:23:46;;;;;;;27.00;19.77;;;25.90;99.90;;;;;;7367031;19;20113;-66
2023/09/11 07:26:12;;;;;;;34.03;19.15;;;26.20;99.90;;;;;;7365077;19;20042;-67
2023/09/11 07:28:59;;;;;;;26.65;16.23;;;26.50;99.90;;;;;;7366436;19;20014;-66
2023/09/11 07:31:26;;;;;;;32.33;24.50;;;26.70;99.90;;;;;;7368809;19;20041;-67
2023/09/11 07:33:53;;;;;;;24.42;14.30;;;27.00;99.90;;;;;;7367299;19;20411;-67
2023/09/11 07:36:20;;;;;;;25.85;14.07;;;27.10;99.90;;;;;;7370770;19;20089;-66
2023/09/11 07:38:47;;;;;;;27.02;16.50;;;27.20;99.90;;;;;;7365838;19;20753;-67
2023/09/11 07:41:33;;;;;;;25.40;20.75;;;27.30;99.90;;;;;;7366722;19;20017;-67
2023/09/11 07:44:00;;;;;;;28.02;16.23;;;27.60;99.90;;;;;;7366615;19;20018;-64
2023/09/11 07:46:28;;;;;;;36.90;30.55;;;27.60;99.90;;;;;;7366896;19;20473;-62
2023/09/11 07:48:54;;;;;;;29.73;24.80;;;27.60;99.90;;;;;;7367439;19;20455;-62
2023/09/11 07:51:21;;;;;;;24.42;20.55;;;27.70;99.90;;;;;;7366173;19;21167;-61
2023/09/11 07:53:47;;;;;;;38.13;31.48;;;28.00;99.90;;;;;;7366838;19;20029;-64
2023/09/11 07:56:13;;;;;;;33.28;25.75;;;28.50;99.90;;;;;;7369760;19;20019;-65
2023/09/11 07:58:39;;;;;;;34.05;24.25;;;28.70;99.90;;;;;;7368856;19;20075;-64
2023/09/11 08:01:06;;;;;;;19.52;12.85;;;28.90;99.90;;;;;;7366205;19;20019;-64
2023/09/11 08:03:33;;;;;;;21.35;12.68;;;29.20;99.90;;;;;;7369357;19;20426;-64
2023/09/11 08:06:01;;;;;;;13.80;10.55;;;29.40;99.90;;;;;;7365661;19;20019;-64
2023/09/11 08:08:27;;;;;;;21.33;11.68;;;29.60;99.90;;;;;;7368848;19;20433;-63
2023/09/11 08:10:54;;;;;;;21.52;11.80;;;29.90;99.90;;;;;;7365068;19;20364;-64
2023/09/11 08:13:20;;;;;;;38.70;34.75;;;30.20;99.90;;;;;;7367589;19;20082;-65
2023/09/11 08:16:06;;;;;;;17.85;11.60;;;30.20;99.90;;;;;;7362410;19;20053;-65
2023/09/11 08:18:33;;;;;;;21.23;13.30;;;29.90;99.90;;;;;;7365099;19;20022;-63
2023/09/11 08:21:02;;;;;;;22.85;12.30;;;29.90;99.90;;;;;;7358636;19;20330;-63
2023/09/11 08:23:28;;;;;;;47.20;42.22;;;30.10;99.90;;;;;;7365793;19;20019;-60
2023/09/11 08:26:02;;;;;;;33.17;28.67;;;30.50;99.90;;;;;;7365229;19;20629;-70
2023/09/11 08:28:29;;;;;;;22.15;11.45;;;30.70;99.90;;;;;;7364511;19;20015;-70
2023/09/11 08:30:58;;;;;;;25.20;11.98;;;31.10;99.90;;;;;;7364742;19;20010;-68
2023/09/11 08:33:24;;;;;;;24.20;13.35;;;31.40;99.90;;;;;;7365085;19;20513;-67
2023/09/11 08:35:50;;;;;;;22.27;10.68;;;31.80;99.80;;;;;;7363800;19;20086;-65
2023/09/11 08:38:17;;;;;;;30.58;25.52;;;32.10;99.10;;;;;;7367914;19;20026;-66
2023/09/11 08:40:45;;;;;;;22.20;14.30;;;32.40;98.00;;;;;;7369810;19;20473;-65
2023/09/11 08:43:11;;;;;;;39.72;35.67;;;32.50;94.30;;;;;;7365091;19;20026;-65
2023/09/11 08:45:59;;;;;;;26.10;18.02;;;32.40;95.50;;;;;;7367652;19;20036;-65
2023/09/11 08:48:30;;;;;;;15.98;10.88;;;32.40;94.50;;;;;;7371296;19;20367;-65
2023/09/11 08:51:02;;;;;;;20.23;14.68;;;32.60;92.10;;;;;;7370307;19;20029;-64
2023/09/11 08:53:32;;;;;;;19.30;11.05;;;32.70;91.50;;;;;;7374482;19;20038;-65
2023/09/11 08:56:00;;;;;;;20.42;16.08;;;32.80;90.60;;;;;;7369740;19;20048;-66
2023/09/11 08:58:28;;;;;;;22.30;19.35;;;32.80;89.50;;;;;;7370448;19;20019;-65
2023/09/11 09:01:00;;;;;;;17.67;9.75;;;32.80;88.40;;;;;;7366003;19;20101;-65
2023/09/11 09:03:28;;;;;;;25.63;20.73;;;32.70;84.70;;;;;;7372058;19;20032;-65
2023/09/11 09:05:58;;;;;;;15.82;10.55;;;33.30;83.50;;;;;;7370345;19;20022;-67
2023/09/11 09:08:26;;;;;;;44.08;39.83;;;33.30;80.00;;;;;;7370663;19;20018;-66
2023/09/11 09:10:53;;;;;;;43.38;39.00;;;33.20;79.50;;;;;;7370685;19;20042;-65
2023/09/11 09:13:19;;;;;;;15.73;11.27;;;33.50;79.00;;;;;;7369391;19;20375;-66
2023/09/11 09:15:46;;;;;;;28.85;15.73;;;33.60;76.90;;;;;;7372334;19;20022;-66
2023/09/11 09:18:12;;;;;;;20.60;10.38;;;33.60;75.80;;;;;;7373147;19;20407;-67
2023/09/11 09:20:39;;;;;;;14.63;12.43;;;33.50;76.20;;;;;;7371044;19;20040;-66
2023/09/11 09:23:06;;;;;;;20.98;14.25;;;33.40;75.00;;;;;;7370536;19;20010;-66
2023/09/11 09:25:33;;;;;;;13.15;10.90;;;33.50;75.10;;;;;;7374072;19;20022;-67
2023/09/11 09:28:02;;;;;;;15.77;9.45;;;33.90;74.30;;;;;;7372996;19;20465;-67
2023/09/11 09:30:55;;;;;;;18.63;10.05;;;33.80;71.60;;;;;;7376303;19;20038;-68
2023/09/11 09:33:22;;;;;;;15.77;11.27;;;33.70;72.10;;;;;;7378712;19;20094;-68
2023/09/11 09:35:48;;;;;;;18.80;16.13;;;34.00;70.90;;;;;;7378168;19;20082;-68
2023/09/11 09:38:20;;;;;;;16.02;9.63;;;34.00;71.00;;;;;;7375526;19;20021;-68
2023/09/11 09:40:49;;;;;;;14.95;12.10;;;34.40;70.50;;;;;;7376210;19;20017;-68
2023/09/11 09:43:35;;;;;;;22.60;11.82;;;34.40;69.20;;;;;;7376764;19;20470;-68
2023/09/11 09:46:22;;;;;;;13.23;9.77;;;34.50;69.90;;;;;;7372776;19;20014;-68
2023/09/11 09:48:48;;;;;;;14.50;9.35;;;34.80;69.00;;;;;;7374293;19;20022;-66
2023/09/11 09:51:15;;;;;;;18.20;14.32;;;35.00;68.20;;;;;;7376242;19;20017;-69
2023/09/11 09:53:44;;;;;;;17.42;10.85;;;35.20;66.50;;;;;;7375779;19;20609;-69
2023/09/11 09:56:12;;;;;;;46.30;41.55;;;34.90;65.00;;;;;;7373050;19;20018;-69
2023/09/11 09:58:43;;;;;;;38.35;34.83;;;35.00;64.90;;;;;;7373622;19;20593;-70
2023/09/11 10:01:15;;;;;;;18.85;14.48;;;34.90;62.90;;;;;;7376673;19;20018;-68
2023/09/11 10:03:45;;;;;;;16.15;10.45;;;34.80;61.90;;;;;;7375991;19;20011;-70
2023/09/11 10:06:34;;;;;;;12.80;9.38;;;35.30;62.80;;;;;;7377533;19;20037;-70
2023/09/11 10:09:09;;;;;;;16.27;10.88;;;34.90;61.70;;;;;;7378026;19;20021;-70
2023/09/11 10:11:37;;;;;;;17.65;10.63;;;34.90;61.10;;;;;;7371079;19;20474;-69
2023/09/11 10:14:09;;;;;;;13.18;8.90;;;35.20;61.10;;;;;;7369868;19;20027;-69
2023/09/11 10:16:35;;;;;;;16.25;14.57;;;35.00;60.80;;;;;;7374131;19;20029;-68
2023/09/11 10:19:02;;;;;;;14.30;11.43;;;35.60;60.70;;;;;;7373559;19;20410;-67
2023/09/11 10:21:32;;;;;;;19.38;13.38;;;35.40;60.20;;;;;;7373305;19;20370;-68
2023/09/11 10:23:58;;;;;;;11.85;9.02;;;35.10;60.70;;;;;;7373538;19;20064;-69
2023/09/11 10:27:03;;;;;;;16.70;11.07;;;35.30;61.60;;;;;;7372195;19;20042;-69
2023/09/11 10:30:17;;;;;;;12.57;11.10;;;36.00;60.90;;;;;;7376296;19;20022;-69
2023/09/11 10:32:59;;;;;;;17.65;11.93;;;36.40;59.70;;;;;;7374942;19;20023;-70
2023/09/11 10:35:30;;;;;;;11.40;7.10;;;36.40;58.60;;;;;;7376657;19;20492;-70
2023/09/11 10:37:58;;;;;;;9.68;7.72;;;36.70;59.00;;;;;;7374876;19;20031;-70
2023/09/11 10:40:29;;;;;;;13.40;8.57;;;37.10;57.50;;;;;;7372045;19;20030;-69
2023/09/11 10:43:17;;;;;;;16.33;9.63;;;37.20;57.50;;;;;;7366636;19;20014;-70
2023/09/11 10:45:43;;;;;;;16.60;8.98;;;37.00;57.20;;;;;;7372777;19;20025;-70
2023/09/11 10:48:29;;;;;;;36.70;33.13;;;37.10;56.90;;;;;;7367406;19;20018;-68
2023/09/11 10:50:57;;;;;;;16.10;9.05;;;37.30;55.70;;;;;;7365990;19;20857;-65
2023/09/11 10:53:33;;;;;;;19.20;16.23;;;36.90;56.60;;;;;;7369340;19;20513;-65
2023/09/11 10:56:03;;;;;;;14.52;11.02;;;37.00;55.40;;;;;;7369086;19;20034;-65
2023/09/11 10:58:30;;;;;;;;;;;36.90;55.40;;;;;;7368645;19;20636;-65
2023/09/11 11:00:57;;;;;;;12.93;9.52;;;36.70;55.10;;;;;;7370025;19;19918;-70
2023/09/11 11:03:26;;;;;;;13.75;11.00;;;36.60;56.70;;;;;;7371616;19;20388;-70
2023/09/11 11:05:52;;;;;;;12.52;9.20;;;36.80;56.10;;;;;;7374438;19;20026;-69
2023/09/11 11:08:19;;;;;;;17.40;13.20;;;36.50;55.90;;;;;;7370294;19;20229;-69
2023/09/11 11:10:55;;;;;;;15.43;12.32;;;37.00;56.10;;;;;;7375338;19;20415;-65
2023/09/11 11:13:24;;;;;;;11.38;8.45;;;36.80;54.40;;;;;;7363941;19;20543;-65
2023/09/11 11:16:16;;;;;;;16.75;12.43;;;36.80;55.70;;;;;;7369991;19;20025;-64
2023/09/11 11:18:44;;;;;;;15.27;9.98;;;37.00;54.60;;;;;;7365879;19;20015;-65
2023/09/11 11:21:10;;;;;;;12.75;9.38;;;37.10;55.10;;;;;;7366983;19;20683;-64
2023/09/11 11:23:55;;;;;;;13.30;10.95;;;36.90;54.90;;;;;;7359448;19;20368;-65
2023/09/11 11:26:36;;;;;;;14.02;10.32;;;36.30;55.20;;;;;;7367239;19;20418;-64
2023/09/11 11:29:32;;;;;;;15.20;13.20;;;36.50;55.20;;;;;;7365751;19;20018;-62
2023/09/11 11:32:02;;;;;;;28.77;26.10;;;36.50;55.90;;;;;;7358462;19;20421;-63
2023/09/11 11:34:32;;;;;;;17.95;16.10;;;36.80;56.20;;;;;;7366604;19;20628;-62
2023/09/11 11:37:03;;;;;;;14.13;12.63;;;36.90;55.70;;;;;;7364919;19;20026;-63
2023/09/11 11:39:36;;;;;;;23.10;20.88;;;36.90;55.20;;;;;;7365691;19;20195;-63
2023/09/11 11:42:04;;;;;;;17.95;12.23;;;37.30;54.00;;;;;;7365724;19;20378;-65
2023/09/11 11:44:33;;;;;;;15.00;11.93;;;37.30;55.40;;;;;;7363303;19;20078;-65
2023/09/11 11:47:00;;;;;;;15.88;13.13;;;37.40;54.70;;;;;;7362196;19;20489;-63
2023/09/11 11:49:28;;;;;;;17.02;15.00;;;37.70;53.40;;;;;;7366948;19;21504;-62
2023/09/11 11:51:58;;;;;;;18.58;15.82;;;37.70;53.30;;;;;;7362534;19;20011;-63
2023/09/11 11:54:26;;;;;;;13.18;11.25;;;37.20;53.40;;;;;;7365439;19;20029;-62
2023/09/11 11:56:55;;;;;;;14.18;9.05;;;36.50;54.20;;;;;;7362225;19;20045;-63
2023/09/11 11:59:41;;;;;;;11.60;8.20;;;36.80;53.80;;;;;;7362756;19;20420;-63
2023/09/11 12:02:21;;;;;;;19.95;15.18;;;37.00;53.80;;;;;;7363167;19;20063;-61
2023/09/11 12:04:50;;;;;;;12.07;8.35;;;37.30;52.70;;;;;;7362250;19;20815;-62
2023/09/11 12:07:17;;;;;;;11.15;8.65;;;37.30;52.60;;;;;;7367124;19;20014;-62
2023/09/11 12:09:43;;;;;;;12.60;7.85;;;37.40;52.50;;;;;;7363264;19;20022;-61
2023/09/11 12:12:30;;;;;;;11.82;7.40;;;37.60;51.80;;;;;;7366749;19;20033;-61
2023/09/11 12:14:58;;;;;;;12.10;7.63;;;37.60;51.80;;;;;;7363945;19;20026;-61
2023/09/11 12:17:24;;;;;;;12.73;7.47;;;37.20;51.50;;;;;;7368065;19;20014;-64
2023/09/11 12:19:50;;;;;;;7.82;5.85;;;37.40;51.10;;;;;;7361389;19;20110;-61
2023/09/11 12:22:19;;;;;;;13.88;7.22;;;37.30;50.90;;;;;;7368066;19;20141;-59
2023/09/11 12:24:45;;;;;;;10.60;6.88;;;37.10;51.30;;;;;;7362811;19;20033;-63
2023/09/11 12:27:11;;;;;;;8.80;6.90;;;37.70;50.60;;;;;;7365719;19;20075;-60
2023/09/11 12:29:39;;;;;;;9.73;7.40;;;37.50;51.20;;;;;;7367201;19;20060;-60
2023/09/11 12:32:05;;;;;;;12.13;7.00;;;37.70;50.80;;;;;;7364206;19;20454;-60
2023/09/11 12:34:58;;;;;;;9.40;6.47;;;37.90;50.30;;;;;;7365919;19;20018;-60
2023/09/11 12:37:25;;;;;;;11.50;6.60;;;37.70;50.90;;;;;;7367574;19;20502;-60
2023/09/11 12:39:51;;;;;;;9.43;6.43;;;37.50;51.00;;;;;;7364382;19;20074;-59
2023/09/11 12:42:21;;;;;;;9.88;5.72;;;37.90;50.30;;;;;;7368145;19;20377;-61